createdAt,value
2023-03-19T00:00:44.079Z,10.49
2023-03-19T00:03:11.324Z,10.49
2023-03-19T00:05:38.799Z,10.44
2023-03-19T00:08:07.412Z,10.42
2023-03-19T00:10:38.074Z,10.45
2023-03-19T00:13:05.453Z,10.39
2023-03-19T00:15:32.855Z,10.39
2023-03-19T00:18:00.299Z,10.44
2023-03-19T00:20:27.624Z,10.37
2023-03-19T00:22:54.839Z,10.39
2023-03-19T00:25:23.684Z,10.33
2023-03-19T00:27:51.228Z,10.29
2023-03-19T00:30:18.603Z,10.34
2023-03-19T00:32:45.921Z,10.28
2023-03-19T00:35:13.375Z,10.26
2023-03-19T00:37:41.491Z,10.22
2023-03-19T00:40:10.592Z,10.20
2023-03-19T00:42:39.463Z,10.23
2023-03-19T00:45:07.933Z,10.22
2023-03-19T00:47:35.304Z,10.20
2023-03-19T00:50:02.716Z,10.11
2023-03-19T00:52:30.222Z,10.11
2023-03-19T00:54:57.564Z,10.09
2023-03-19T00:57:24.950Z,10.10
2023-03-19T00:59:53.546Z,10.07
2023-03-19T01:02:20.848Z,10.06
2023-03-19T01:04:48.554Z,10.06
2023-03-19T01:07:15.913Z,10.11
2023-03-19T01:09:43.223Z,10.14
2023-03-19T01:12:10.547Z,10.06
2023-03-19T01:14:37.873Z,10.06
2023-03-19T01:17:06.738Z,10.10
2023-03-19T01:19:34.151Z,10.03
2023-03-19T01:22:01.491Z,10.04
2023-03-19T01:24:30.264Z,10.03
2023-03-19T01:26:57.691Z,10.08
2023-03-19T01:29:30.844Z,10.08
2023-03-19T01:32:02.240Z,10.15
2023-03-19T01:34:30.789Z,10.17
2023-03-19T01:37:06.217Z,10.24
2023-03-19T01:39:34.372Z,10.27
2023-03-19T01:42:05.691Z,10.31
2023-03-19T01:44:51.588Z,10.37
2023-03-19T01:47:33.013Z,10.35
2023-03-19T01:50:28.563Z,10.38
2023-03-19T01:53:19.696Z,10.34
2023-03-19T01:55:52.491Z,10.42
2023-03-19T01:58:36.698Z,10.42
2023-03-19T02:01:37.920Z,10.44
2023-03-19T02:04:06.111Z,10.36
2023-03-19T02:06:38.107Z,10.38
2023-03-19T02:09:05.461Z,10.34
2023-03-19T02:11:32.842Z,10.37
2023-03-19T02:14:00.389Z,10.34
2023-03-19T02:16:28.138Z,10.29
2023-03-19T02:18:56.460Z,10.30
2023-03-19T02:21:23.706Z,10.24
2023-03-19T02:24:01.345Z,10.19
2023-03-19T02:27:02.848Z,10.20
2023-03-19T02:29:30.627Z,10.22
2023-03-19T02:32:00.061Z,10.18
2023-03-19T02:34:35.914Z,10.20
2023-03-19T02:37:08.077Z,10.13
2023-03-19T02:39:41.757Z,10.12
2023-03-19T02:42:13.704Z,10.13
2023-03-19T02:44:41.272Z,10.11
2023-03-19T02:47:08.812Z,10.10
2023-03-19T02:49:36.095Z,10.13
2023-03-19T02:52:04.197Z,10.10
2023-03-19T02:54:31.672Z,10.03
2023-03-19T02:56:58.931Z,10.05
2023-03-19T02:59:27.636Z,10.03
2023-03-19T03:01:55.015Z,10.04
2023-03-19T03:04:22.271Z,10.01
2023-03-19T03:06:49.478Z,10.02
2023-03-19T03:09:16.981Z,9.99
2023-03-19T03:11:44.379Z,10.03
2023-03-19T03:14:12.797Z,10.05
2023-03-19T03:16:42.551Z,10.03
2023-03-19T03:19:09.953Z,10.03
2023-03-19T03:21:37.401Z,10.05
2023-03-19T03:24:05.210Z,10.01
2023-03-19T03:26:32.421Z,9.98
2023-03-19T03:28:59.701Z,10.06
2023-03-19T03:31:27.307Z,10.04
2023-03-19T03:33:56.011Z,9.96
2023-03-19T03:36:23.368Z,9.98
2023-03-19T03:38:50.717Z,10.00
2023-03-19T03:41:17.943Z,9.95
2023-03-19T03:43:45.474Z,9.98
2023-03-19T03:46:13.276Z,9.96
2023-03-19T03:48:40.532Z,9.93
2023-03-19T03:51:09.181Z,9.93
2023-03-19T03:53:36.440Z,9.94
2023-03-19T03:56:05.687Z,9.95
2023-03-19T03:58:33.227Z,9.98
2023-03-19T04:01:00.572Z,9.91
2023-03-19T04:03:27.978Z,9.90
2023-03-19T04:05:55.350Z,9.90
2023-03-19T04:08:24.561Z,9.92
2023-03-19T04:10:51.841Z,9.92
2023-03-19T04:13:19.144Z,9.91
2023-03-19T04:15:46.432Z,9.97
2023-03-19T04:18:14.310Z,9.95
2023-03-19T04:20:41.962Z,9.95
2023-03-19T04:23:09.756Z,9.93
2023-03-19T04:25:40.496Z,9.93
2023-03-19T04:28:07.900Z,9.93
2023-03-19T04:30:35.678Z,9.88
2023-03-19T04:33:03.765Z,9.92
2023-03-19T04:35:31.462Z,9.93
2023-03-19T04:37:59.229Z,9.95
2023-03-19T04:40:26.596Z,10.00
2023-03-19T04:42:55.656Z,9.99
2023-03-19T04:45:31.560Z,10.01
2023-03-19T04:47:59.669Z,9.99
2023-03-19T04:50:27.494Z,10.01
2023-03-19T04:52:54.795Z,10.00
2023-03-19T04:55:23.077Z,10.01
2023-03-19T04:58:05.292Z,9.97
2023-03-19T05:00:35.327Z,9.98
2023-03-19T05:03:03.046Z,9.95
2023-03-19T05:05:32.004Z,9.94
2023-03-19T05:07:59.521Z,9.88
2023-03-19T05:10:28.161Z,9.80
2023-03-19T05:12:55.486Z,9.80
2023-03-19T05:15:24.582Z,9.81
2023-03-19T05:18:00.578Z,9.78
2023-03-19T05:20:37.534Z,9.84
2023-03-19T05:23:08.545Z,9.78
2023-03-19T05:25:42.194Z,9.73
2023-03-19T05:28:12.380Z,9.70
2023-03-19T05:30:41.597Z,9.68
2023-03-19T05:33:20.024Z,9.67
2023-03-19T05:35:47.317Z,9.65
2023-03-19T05:38:21.770Z,9.68
2023-03-19T05:40:55.730Z,9.65
2023-03-19T05:43:35.347Z,9.60
2023-03-19T05:46:08.206Z,9.54
2023-03-19T05:48:35.530Z,9.51
2023-03-19T05:51:05.203Z,9.52
2023-03-19T05:53:36.997Z,9.48
2023-03-19T05:56:36.784Z,9.46
2023-03-19T05:59:39.151Z,9.42
2023-03-19T06:02:37.750Z,9.41
2023-03-19T06:05:37.006Z,9.41
2023-03-19T06:08:23.323Z,9.43
2023-03-19T06:11:05.461Z,9.49
2023-03-19T06:13:34.231Z,9.50
2023-03-19T06:16:07.716Z,9.55
2023-03-19T06:18:43.130Z,9.68
2023-03-19T06:21:12.887Z,9.74
2023-03-19T06:23:40.152Z,9.88
2023-03-19T06:26:08.778Z,9.93
2023-03-19T06:28:43.524Z,10.01
2023-03-19T06:31:10.912Z,10.11
2023-03-19T06:33:54.654Z,10.14
2023-03-19T06:36:24.324Z,10.21
2023-03-19T06:38:51.740Z,10.22
2023-03-19T06:41:19.105Z,10.25
2023-03-19T06:43:48.328Z,10.34
2023-03-19T06:46:15.710Z,10.42
2023-03-19T06:48:42.932Z,10.46
2023-03-19T06:51:11.693Z,10.49
2023-03-19T06:53:39.165Z,10.55
2023-03-19T06:56:06.811Z,10.55
2023-03-19T06:58:34.080Z,10.72
2023-03-19T07:01:01.622Z,10.76
2023-03-19T07:03:28.897Z,10.81
2023-03-19T07:05:56.397Z,10.74
2023-03-19T07:08:25.036Z,10.86
2023-03-19T07:10:52.252Z,10.83
2023-03-19T07:13:19.842Z,10.86
2023-03-19T07:15:47.281Z,10.87
2023-03-19T07:18:14.506Z,11.00
2023-03-19T07:20:41.761Z,11.03
2023-03-19T07:23:08.953Z,11.05
2023-03-19T07:25:37.622Z,11.01
2023-03-19T07:28:05.152Z,11.03
2023-03-19T07:30:32.701Z,11.11
2023-03-19T07:33:00.082Z,11.04
2023-03-19T07:35:27.798Z,11.07
2023-03-19T07:37:55.085Z,11.05
2023-03-19T07:40:22.324Z,10.99
2023-03-19T07:42:51.009Z,11.04
2023-03-19T07:45:18.571Z,11.11
2023-03-19T07:47:47.851Z,11.12
2023-03-19T07:50:16.596Z,11.26
2023-03-19T07:52:45.751Z,11.25
2023-03-19T07:55:16.846Z,11.34
2023-03-19T07:57:44.160Z,11.30
2023-03-19T08:00:13.781Z,11.55
2023-03-19T08:02:41.172Z,11.54
2023-03-19T08:05:09.698Z,11.60
2023-03-19T08:07:37.553Z,11.53
2023-03-19T08:10:06.036Z,11.67
2023-03-19T08:12:33.344Z,11.75
2023-03-19T08:15:00.513Z,11.67
2023-03-19T08:17:29.113Z,11.85
2023-03-19T08:19:56.386Z,11.94
2023-03-19T08:22:23.693Z,12.12
2023-03-19T08:24:50.904Z,12.31
2023-03-19T08:27:18.102Z,12.58
2023-03-19T08:29:45.310Z,12.59
2023-03-19T08:32:12.949Z,12.88
2023-03-19T08:34:41.507Z,12.73
2023-03-19T08:37:08.800Z,12.87
2023-03-19T08:39:36.029Z,12.91
2023-03-19T08:42:03.328Z,12.79
2023-03-19T08:44:30.507Z,12.71
2023-03-19T08:46:57.712Z,12.94
2023-03-19T08:49:24.971Z,12.96
2023-03-19T08:51:53.587Z,13.17
2023-03-19T08:54:22.833Z,13.06
2023-03-19T08:56:50.403Z,13.20
2023-03-19T08:59:17.605Z,12.98
2023-03-19T09:01:45.048Z,13.06
2023-03-19T09:04:12.280Z,13.05
2023-03-19T09:06:39.648Z,13.18
2023-03-19T09:09:08.371Z,13.13
2023-03-19T09:11:35.938Z,13.60
2023-03-19T09:14:03.477Z,13.62
2023-03-19T09:16:31.154Z,13.96
2023-03-19T09:18:59.480Z,14.12
2023-03-19T09:21:26.894Z,14.42
2023-03-19T09:23:54.317Z,15.01
2023-03-19T09:26:23.137Z,15.06
2023-03-19T09:28:50.355Z,14.79
2023-03-19T09:31:17.969Z,15.03
2023-03-19T09:33:45.261Z,15.41
2023-03-19T09:36:12.559Z,15.91
2023-03-19T09:38:39.809Z,15.99
2023-03-19T09:41:10.502Z,15.95
2023-03-19T09:44:07.076Z,15.82
2023-03-19T09:46:41.809Z,15.54
2023-03-19T09:49:19.595Z,15.77
2023-03-19T09:51:50.832Z,15.48
2023-03-19T09:54:31.350Z,15.25
2023-03-19T09:56:58.758Z,15.49
2023-03-19T09:59:29.231Z,15.64
2023-03-19T10:02:04.557Z,15.46
2023-03-19T10:04:41.438Z,15.77
2023-03-19T10:07:22.317Z,16.01
2023-03-19T10:10:01.358Z,15.91
2023-03-19T10:12:45.347Z,16.21
2023-03-19T10:15:22.125Z,16.68
2023-03-19T10:18:11.050Z,17.00
2023-03-19T10:20:57.915Z,18.90
2023-03-19T10:23:34.348Z,19.46
2023-03-19T10:26:04.332Z,19.55
2023-03-19T10:28:31.608Z,18.77
2023-03-19T10:31:13.140Z,18.48
2023-03-19T10:33:44.403Z,17.98
2023-03-19T10:36:14.815Z,18.05
2023-03-19T10:38:46.063Z,17.41
2023-03-19T10:41:29.890Z,16.59
2023-03-19T10:44:01.310Z,17.45
2023-03-19T10:46:37.130Z,17.33
2023-03-19T10:49:04.393Z,17.01
2023-03-19T10:51:32.304Z,16.73
2023-03-19T10:54:01.068Z,16.05
2023-03-19T10:56:33.344Z,16.01
2023-03-19T10:59:02.288Z,15.82
2023-03-19T11:01:34.801Z,15.69
2023-03-19T11:04:11.288Z,15.41
2023-03-19T11:06:38.791Z,15.38
2023-03-19T11:09:14.913Z,15.09
2023-03-19T11:11:44.471Z,15.09
2023-03-19T11:14:15.938Z,14.97
2023-03-19T11:16:56.080Z,14.90
2023-03-19T11:19:25.575Z,14.89
2023-03-19T11:22:01.773Z,14.90
2023-03-19T11:24:32.575Z,14.82
2023-03-19T11:27:00.180Z,14.73
2023-03-19T11:29:28.201Z,14.77
2023-03-19T11:32:20.327Z,14.75
2023-03-19T11:34:53.975Z,14.86
2023-03-19T11:37:30.944Z,14.91
2023-03-19T11:40:09.243Z,14.93
2023-03-19T11:42:52.351Z,14.79
2023-03-19T11:45:29.276Z,14.76
2023-03-19T11:48:12.948Z,14.85
2023-03-19T11:50:49.682Z,15.07
2023-03-19T11:53:24.689Z,15.03
2023-03-19T11:56:00.434Z,14.94
2023-03-19T11:58:54.404Z,15.05
2023-03-19T12:01:34.763Z,14.78
2023-03-19T12:04:21.336Z,14.86
2023-03-19T12:07:00.743Z,14.91
2023-03-19T12:09:36.283Z,14.87
2023-03-19T12:12:17.994Z,14.77
2023-03-19T12:14:55.254Z,14.45
2023-03-19T12:17:39.085Z,14.16
2023-03-19T12:20:26.718Z,14.23
2023-03-19T12:23:04.904Z,14.10
2023-03-19T12:25:45.507Z,13.67
2023-03-19T12:28:23.158Z,13.63
2023-03-19T12:31:08.748Z,13.59
2023-03-19T12:33:46.033Z,13.55
2023-03-19T12:36:20.485Z,13.64
2023-03-19T12:38:51.286Z,13.87
2023-03-19T12:41:23.014Z,14.35
2023-03-19T12:43:57.016Z,14.48
2023-03-19T12:46:29.847Z,15.13
2023-03-19T12:49:02.888Z,15.43
2023-03-19T12:51:35.868Z,16.54
2023-03-19T12:54:07.448Z,16.97
2023-03-19T12:56:39.726Z,16.68
2023-03-19T12:59:15.491Z,15.46
2023-03-19T13:01:48.743Z,15.97
2023-03-19T13:04:21.384Z,15.77
2023-03-19T13:06:55.705Z,15.62
2023-03-19T13:09:35.229Z,15.57
2023-03-19T13:12:05.347Z,15.41
2023-03-19T13:14:45.260Z,15.66
2023-03-19T13:17:21.643Z,15.85
2023-03-19T13:19:52.763Z,15.68
2023-03-19T13:22:22.891Z,16.11
2023-03-19T13:24:51.927Z,16.36
2023-03-19T13:27:23.733Z,17.48
2023-03-19T13:30:08.169Z,16.78
2023-03-19T13:32:40.240Z,17.17
2023-03-19T13:35:28.012Z,18.25
2023-03-19T13:38:01.336Z,18.06
2023-03-19T13:40:41.773Z,17.40
2023-03-19T13:43:38.768Z,17.18
2023-03-19T13:46:29.386Z,19.09
2023-03-19T13:49:08.309Z,19.36
2023-03-19T13:51:35.915Z,18.92
2023-03-19T13:54:15.726Z,18.77
2023-03-19T13:57:04.502Z,18.49
2023-03-19T13:59:33.348Z,18.86
2023-03-19T14:02:01.520Z,19.31
2023-03-19T14:04:30.095Z,19.86
2023-03-19T14:07:08.416Z,18.93
2023-03-19T14:09:42.367Z,17.64
2023-03-19T14:12:11.955Z,16.59
2023-03-19T14:14:45.657Z,16.81
2023-03-19T14:17:19.568Z,16.87
2023-03-19T14:19:47.718Z,17.39
2023-03-19T14:22:21.415Z,19.60
2023-03-19T14:25:04.045Z,19.93
2023-03-19T14:27:32.609Z,18.58
2023-03-19T14:30:07.463Z,17.40
2023-03-19T14:32:38.562Z,16.96
2023-03-19T14:35:07.144Z,16.63
2023-03-19T14:37:43.050Z,16.64
2023-03-19T14:40:15.668Z,16.81
2023-03-19T14:42:57.724Z,16.79
2023-03-19T14:45:42.951Z,16.52
2023-03-19T14:48:48.070Z,18.34
2023-03-19T14:51:54.037Z,18.82
2023-03-19T14:54:30.340Z,19.49
2023-03-19T14:57:06.514Z,19.84
2023-03-19T14:59:37.718Z,19.99
2023-03-19T15:02:06.133Z,21.71
2023-03-19T15:04:33.636Z,20.40
2023-03-19T15:07:04.595Z,19.80
2023-03-19T15:09:33.952Z,19.92
2023-03-19T15:12:26.174Z,18.95
2023-03-19T15:15:17.683Z,19.34
2023-03-19T15:17:49.222Z,20.68
2023-03-19T15:20:25.109Z,20.09
2023-03-19T15:22:54.519Z,19.55
2023-03-19T15:25:22.274Z,18.15
2023-03-19T15:30:54.871Z,17.80
2023-03-19T15:33:39.839Z,17.36
2023-03-19T15:36:12.394Z,17.84
2023-03-19T15:38:44.126Z,17.76
2023-03-19T15:41:12.828Z,17.10
2023-03-19T15:43:41.623Z,16.96
2023-03-19T15:46:15.059Z,18.26
2023-03-19T15:48:47.780Z,19.18
2023-03-19T15:51:16.814Z,19.91
2023-03-19T15:53:45.183Z,19.90
2023-03-19T15:56:14.553Z,20.41
2023-03-19T15:58:45.146Z,20.43
2023-03-19T16:01:16.570Z,20.17
2023-03-19T16:03:45.837Z,20.10
2023-03-19T16:06:20.993Z,19.96
2023-03-19T16:08:50.039Z,20.16
2023-03-19T16:11:28.254Z,19.94
2023-03-19T16:13:59.787Z,19.12
2023-03-19T16:16:32.956Z,19.64
2023-03-19T16:19:00.303Z,19.75
2023-03-19T16:21:36.184Z,19.11
2023-03-19T16:24:09.114Z,19.03
2023-03-19T16:26:39.451Z,18.47
2023-03-19T16:29:17.816Z,18.41
2023-03-19T16:31:49.148Z,18.35
2023-03-19T16:34:32.192Z,17.93
2023-03-19T16:37:03.499Z,18.43
2023-03-19T16:39:35.511Z,18.08
2023-03-19T16:42:29.219Z,18.06
2023-03-19T16:44:57.554Z,18.28
2023-03-19T16:47:26.137Z,17.84
2023-03-19T16:49:53.407Z,18.61
2023-03-19T16:52:24.157Z,18.55
2023-03-19T16:54:51.842Z,17.87
2023-03-19T16:57:19.757Z,18.00
2023-03-19T16:59:48.284Z,18.00
2023-03-19T17:02:17.690Z,18.05
2023-03-19T17:04:46.782Z,17.60
2023-03-19T17:07:14.113Z,17.44
2023-03-19T17:09:41.547Z,17.42
2023-03-19T17:12:14.967Z,17.08
2023-03-19T17:14:42.593Z,16.85
2023-03-19T17:17:17.633Z,16.56
2023-03-19T17:19:47.024Z,15.65
2023-03-19T17:22:14.226Z,15.25
2023-03-19T17:24:41.706Z,14.99
2023-03-19T17:27:09.756Z,14.62
2023-03-19T17:29:37.063Z,14.45
2023-03-19T17:32:06.907Z,14.22
2023-03-19T17:34:35.699Z,14.17
2023-03-19T17:37:06.766Z,13.96
2023-03-19T17:39:34.693Z,13.80
2023-03-19T17:42:02.402Z,13.75
2023-03-19T17:44:29.673Z,13.69
2023-03-19T17:46:57.183Z,13.62
2023-03-19T17:49:26.702Z,13.52
2023-03-19T17:51:53.962Z,13.50
2023-03-19T17:54:22.708Z,13.36
2023-03-19T17:56:49.923Z,13.42
2023-03-19T17:59:17.279Z,13.43
2023-03-19T18:01:45.630Z,13.36
2023-03-19T18:04:15.016Z,13.29
2023-03-19T18:06:45.110Z,13.17
2023-03-19T18:09:19.148Z,13.05
2023-03-19T18:11:47.773Z,13.08
2023-03-19T18:14:15.465Z,13.03
2023-03-19T18:16:43.486Z,13.00
2023-03-19T18:19:19.224Z,12.76
2023-03-19T18:21:46.699Z,12.85
2023-03-19T18:24:14.102Z,12.71
2023-03-19T18:26:41.573Z,12.69
2023-03-19T18:29:10.308Z,12.70
2023-03-19T18:31:37.729Z,12.64
2023-03-19T18:34:11.058Z,12.45
2023-03-19T18:36:39.729Z,12.42
2023-03-19T18:39:10.962Z,12.47
2023-03-19T18:41:38.526Z,12.29
2023-03-19T18:44:06.854Z,12.30
2023-03-19T18:46:37.500Z,12.20
2023-03-19T18:49:07.172Z,12.23
2023-03-19T18:51:34.419Z,12.22
2023-03-19T18:54:01.659Z,12.16
2023-03-19T18:56:31.321Z,12.17
2023-03-19T18:58:59.861Z,12.19
2023-03-19T19:01:27.338Z,12.20
2023-03-19T19:03:56.281Z,12.13
2023-03-19T19:06:40.060Z,12.13
2023-03-19T19:09:13.431Z,11.99
2023-03-19T19:11:44.368Z,11.90
2023-03-19T19:14:19.183Z,11.92
2023-03-19T19:16:47.132Z,11.94
2023-03-19T19:19:18.523Z,11.84
2023-03-19T19:21:46.046Z,11.78
2023-03-19T19:24:13.282Z,11.80
2023-03-19T19:26:43.485Z,11.75
2023-03-19T19:29:17.555Z,11.70
2023-03-19T19:31:44.792Z,11.51
2023-03-19T19:34:14.197Z,11.47
2023-03-19T19:36:43.297Z,11.50
2023-03-19T19:39:11.272Z,11.53
2023-03-19T19:41:39.671Z,11.45
2023-03-19T19:44:07.341Z,11.38
2023-03-19T19:46:34.953Z,11.52
2023-03-19T19:49:02.252Z,11.42
2023-03-19T19:51:29.656Z,11.17
2023-03-19T19:53:58.288Z,11.00
2023-03-19T19:56:26.104Z,10.72
2023-03-19T19:58:54.875Z,10.61
2023-03-19T20:01:23.876Z,10.34
2023-03-19T20:03:52.261Z,10.16
2023-03-19T20:06:19.922Z,10.09
2023-03-19T20:08:47.645Z,9.94
2023-03-19T20:11:18.239Z,9.95
2023-03-19T20:13:48.256Z,9.95
2023-03-19T20:16:16.130Z,10.02
2023-03-19T20:18:44.521Z,9.78
2023-03-19T20:21:13.275Z,9.63
2023-03-19T20:23:41.192Z,9.64
2023-03-19T20:26:12.776Z,9.67
2023-03-19T20:28:42.055Z,9.54
2023-03-19T20:31:15.897Z,9.54
2023-03-19T20:33:43.669Z,9.34
2023-03-19T20:36:14.200Z,9.47
2023-03-19T20:38:41.516Z,9.38
2023-03-19T20:41:18.248Z,9.14
2023-03-19T20:43:47.806Z,9.23
2023-03-19T20:46:17.728Z,9.22
2023-03-19T20:48:45.308Z,9.14
2023-03-19T20:51:18.276Z,9.12
2023-03-19T20:53:45.839Z,9.26
2023-03-19T20:56:15.353Z,9.32
2023-03-19T20:58:43.026Z,9.26
2023-03-19T21:01:12.433Z,9.25
2023-03-19T21:03:39.922Z,9.24
2023-03-19T21:06:14.665Z,9.30
2023-03-19T21:08:44.270Z,9.45
2023-03-19T21:11:14.332Z,9.44
2023-03-19T21:13:41.633Z,9.56
2023-03-19T21:16:16.647Z,9.55
2023-03-19T21:18:44.014Z,9.58
2023-03-19T21:21:11.470Z,9.55
2023-03-19T21:23:40.233Z,9.65
2023-03-19T21:26:13.939Z,9.84
2023-03-19T21:28:42.203Z,9.89
2023-03-19T21:31:14.733Z,9.94
2023-03-19T21:33:42.016Z,9.89
2023-03-19T21:36:09.938Z,10.02
2023-03-19T21:38:37.285Z,10.03
2023-03-19T21:41:07.115Z,10.13
2023-03-19T21:43:40.057Z,10.16
2023-03-19T21:46:23.187Z,10.20
2023-03-19T21:48:53.424Z,10.23
2023-03-19T21:51:21.080Z,10.24
2023-03-19T21:53:48.735Z,10.22
2023-03-19T21:56:24.327Z,10.27
2023-03-19T21:58:53.130Z,10.37
2023-03-19T22:01:22.669Z,10.39
2023-03-19T22:03:50.110Z,10.31
2023-03-19T22:06:18.935Z,10.26
2023-03-19T22:08:49.380Z,10.23
2023-03-19T22:11:20.911Z,10.36
2023-03-19T22:13:48.509Z,10.19
2023-03-19T22:16:19.048Z,10.29
2023-03-19T22:18:46.523Z,10.38
2023-03-19T22:21:15.854Z,10.30
2023-03-19T22:23:45.969Z,10.24
2023-03-19T22:26:28.630Z,10.38
2023-03-19T22:28:57.250Z,10.20
2023-03-19T22:31:26.074Z,10.27
2023-03-19T22:33:53.688Z,10.20
2023-03-19T22:36:21.085Z,10.15
2023-03-19T22:38:52.701Z,10.22
2023-03-19T22:41:27.997Z,10.09
2023-03-19T22:43:57.160Z,10.18
2023-03-19T22:46:25.374Z,10.08
2023-03-19T22:48:53.011Z,10.09
2023-03-19T22:51:22.270Z,10.20
2023-03-19T22:53:52.014Z,10.14
2023-03-19T22:56:20.929Z,10.09
2023-03-19T22:58:48.384Z,10.09
2023-03-19T23:01:29.959Z,10.04
2023-03-19T23:04:04.702Z,10.02
2023-03-19T23:06:32.037Z,10.03
2023-03-19T23:09:00.758Z,10.10
2023-03-19T23:11:28.456Z,10.17
2023-03-19T23:13:56.773Z,10.19
2023-03-19T23:16:25.125Z,10.19
2023-03-19T23:18:52.637Z,10.26
2023-03-19T23:21:20.791Z,10.24
2023-03-19T23:23:48.064Z,10.34
2023-03-19T23:26:28.082Z,10.33
2023-03-19T23:28:57.333Z,10.34
2023-03-19T23:31:24.526Z,10.37
2023-03-19T23:33:51.860Z,10.42
2023-03-19T23:36:19.332Z,10.39
2023-03-19T23:38:46.789Z,10.42
2023-03-19T23:41:22.990Z,10.42
2023-03-19T23:43:52.824Z,10.49
2023-03-19T23:46:20.769Z,10.48
2023-03-19T23:48:48.116Z,10.50
2023-03-19T23:51:16.261Z,10.50
2023-03-19T23:53:46.646Z,10.51
2023-03-19T23:56:18.526Z,10.58
2023-03-19T23:58:47.479Z,10.55
